createdAt,value
2023-09-19T00:00:16.494Z,100100.41
2023-09-19T00:02:48.049Z,100101.88
2023-09-19T00:05:19.899Z,100093.41
2023-09-19T00:07:51.429Z,100098.16
2023-09-19T00:10:23.370Z,100080.66
2023-09-19T00:12:54.903Z,100089.72
2023-09-19T00:15:26.779Z,100089.72
2023-09-19T00:17:58.288Z,100084.97
2023-09-19T00:20:30.120Z,100086.41
2023-09-19T00:23:01.655Z,100087.44
2023-09-19T00:25:33.847Z,100086.34
2023-09-19T00:28:05.496Z,100086.16
2023-09-19T00:30:37.355Z,100090.06
2023-09-19T00:33:09.081Z,100085.50
2023-09-19T00:35:40.588Z,100088.00
2023-09-19T00:38:12.114Z,100080.97
2023-09-19T00:40:43.651Z,100085.09
2023-09-19T00:43:15.582Z,100083.44
2023-09-19T00:45:47.139Z,100084.88
2023-09-19T00:48:18.697Z,100092.91
2023-09-19T00:50:50.327Z,100091.66
2023-09-19T00:53:22.166Z,100085.47
2023-09-19T00:55:53.702Z,100086.50
2023-09-19T00:58:25.723Z,100096.38
2023-09-19T01:00:57.315Z,100098.44
2023-09-19T01:03:29.352Z,100095.16
2023-09-19T01:06:00.955Z,100085.47
2023-09-19T01:08:32.770Z,100088.16
2023-09-19T01:11:04.680Z,100098.03
2023-09-19T01:13:36.272Z,100012.03
2023-09-19T01:16:08.274Z,100099.06
2023-09-19T01:18:39.906Z,100099.69
2023-09-19T01:21:11.763Z,100103.53
2023-09-19T01:23:43.286Z,100101.94
2023-09-19T01:26:15.193Z,100096.97
2023-09-19T01:28:46.761Z,100102.31
2023-09-19T01:31:18.734Z,100100.28
2023-09-19T01:33:50.285Z,100085.88
2023-09-19T01:36:22.156Z,100096.38
2023-09-19T01:38:53.954Z,100089.16
2023-09-19T01:41:25.462Z,100100.69
2023-09-19T01:43:57.285Z,100102.34
2023-09-19T01:46:28.892Z,100101.94
2023-09-19T01:49:00.878Z,100106.47
2023-09-19T01:51:32.404Z,100099.28
2023-09-19T01:54:04.249Z,100098.44
2023-09-19T01:56:35.738Z,100098.44
2023-09-19T01:59:07.568Z,100106.88
2023-09-19T02:01:39.434Z,100106.44
2023-09-19T02:04:11.451Z,100106.44
2023-09-19T02:06:43.016Z,100108.91
2023-09-19T02:09:14.824Z,100120.81
2023-09-19T02:11:46.320Z,100112.38
2023-09-19T02:14:17.832Z,100121.59
2023-09-19T02:16:49.411Z,100126.72
2023-09-19T02:19:20.962Z,100127.94
2023-09-19T02:21:52.551Z,100127.50
2023-09-19T02:24:24.058Z,100129.94
2023-09-19T02:26:55.915Z,100140.66
2023-09-19T02:29:27.396Z,100136.56
2023-09-19T02:31:59.492Z,100130.78
2023-09-19T02:34:31.085Z,100139.81
2023-09-19T02:37:02.859Z,100134.47
2023-09-19T02:39:34.647Z,100138.78
2023-09-19T02:42:06.184Z,100147.84
2023-09-19T02:44:37.992Z,100145.41
2023-09-19T02:47:09.551Z,100146.00
2023-09-19T02:49:41.445Z,100148.53
2023-09-19T02:52:13.006Z,100149.63
2023-09-19T02:54:44.519Z,100150.91
2023-09-19T02:57:16.040Z,100153.81
2023-09-19T02:59:47.545Z,100162.69
2023-09-19T03:02:19.104Z,100161.47
2023-09-19T03:04:50.785Z,100174.25
2023-09-19T03:07:22.699Z,100164.19
2023-09-19T03:09:54.590Z,100173.66
2023-09-19T03:12:26.134Z,100171.81
2023-09-19T03:14:57.622Z,100173.72
2023-09-19T03:17:29.559Z,100173.31
2023-09-19T03:20:01.293Z,100170.25
2023-09-19T03:22:33.162Z,100170.25
2023-09-19T03:25:04.724Z,100179.50
2023-09-19T03:27:36.259Z,100183.22
2023-09-19T03:30:07.776Z,100180.09
2023-09-19T03:32:39.302Z,100188.75
2023-09-19T03:35:10.808Z,100180.66
2023-09-19T03:37:42.382Z,100182.34
2023-09-19T03:40:14.255Z,100186.88
2023-09-19T03:42:45.790Z,100183.75
2023-09-19T03:45:17.568Z,100192.19
2023-09-19T03:47:49.460Z,100194.22
2023-09-19T03:50:20.968Z,100189.69
2023-09-19T03:52:52.847Z,100195.88
2023-09-19T03:55:24.396Z,100189.69
2023-09-19T03:57:56.264Z,100199.97
2023-09-19T04:00:27.791Z,100192.78
2023-09-19T04:02:59.611Z,100200.56
2023-09-19T04:05:31.159Z,100203.44
2023-09-19T04:08:03.056Z,100201.16
2023-09-19T04:10:34.608Z,100200.97
2023-09-19T04:13:06.443Z,100201.16
2023-09-19T04:15:37.942Z,100203.59
2023-09-19T04:18:09.976Z,100208.31
2023-09-19T04:20:41.487Z,100209.94
2023-09-19T04:23:14.801Z,100214.84
2023-09-19T04:25:46.373Z,100217.03
2023-09-19T04:28:18.294Z,100222.38
2023-09-19T04:30:49.896Z,100219.66
2023-09-19T04:33:21.436Z,100223.56
2023-09-19T04:35:53.290Z,100222.13
2023-09-19T04:38:24.795Z,100221.69
2023-09-19T04:40:56.813Z,100232.78
2023-09-19T04:43:28.327Z,100227.41
2023-09-19T04:45:59.910Z,100232.13
2023-09-19T04:48:31.432Z,100236.66
2023-09-19T04:51:03.270Z,100242.00
2023-09-19T04:53:35.143Z,100240.72
2023-09-19T04:56:06.776Z,100249.19
2023-09-19T04:58:38.688Z,100241.38
2023-09-19T05:01:10.232Z,100244.22
2023-09-19T05:03:42.326Z,100254.53
2023-09-19T05:06:13.889Z,100253.91
2023-09-19T05:08:45.404Z,100250.22
2023-09-19T05:11:16.898Z,100272.44
2023-09-19T05:13:48.498Z,100276.31
2023-09-19T05:16:20.085Z,100271.16
2023-09-19T05:18:52.030Z,100280.84
2023-09-19T05:21:23.549Z,100284.34
2023-09-19T05:23:55.396Z,100286.38
2023-09-19T05:26:26.900Z,100290.91
2023-09-19T05:28:58.457Z,100292.56
2023-09-19T05:31:30.052Z,100295.03
2023-09-19T05:34:01.992Z,100295.03
2023-09-19T05:36:33.836Z,100305.53
2023-09-19T05:39:05.699Z,100302.66
2023-09-19T05:41:37.587Z,100308.22
2023-09-19T05:44:09.178Z,100309.47
2023-09-19T05:46:41.227Z,100321.78
2023-09-19T05:49:12.886Z,100323.69
2023-09-19T05:51:44.403Z,100326.34
2023-09-19T05:54:15.918Z,100332.09
2023-09-19T05:56:47.506Z,100334.19
2023-09-19T05:59:19.011Z,100336.66
2023-09-19T06:01:50.593Z,100331.31
2023-09-19T06:04:22.262Z,100338.78
2023-09-19T06:06:53.845Z,100346.19
2023-09-19T06:09:25.865Z,100355.69
2023-09-19T06:11:57.706Z,100360.88
2023-09-19T06:14:29.224Z,100360.44
2023-09-19T06:17:00.737Z,100372.16
2023-09-19T06:19:32.487Z,100371.72
2023-09-19T06:22:04.010Z,100365.91
2023-09-19T06:24:35.545Z,100369.13
2023-09-19T06:27:07.069Z,100378.22
2023-09-19T06:29:38.649Z,100381.59
2023-09-19T06:32:10.327Z,100376.22
2023-09-19T06:34:41.943Z,100375.97
2023-09-19T06:37:13.488Z,100381.59
2023-09-19T06:39:45.227Z,100377.13
2023-09-19T06:42:16.996Z,100372.94
2023-09-19T06:44:48.786Z,100381.44
2023-09-19T06:47:20.647Z,100382.31
2023-09-19T06:49:52.214Z,100391.59
2023-09-19T06:52:23.929Z,100393.88
2023-09-19T06:54:55.450Z,100399.75
2023-09-19T06:57:27.169Z,100393.19
2023-09-19T06:59:58.710Z,100397.56
2023-09-19T07:02:30.259Z,100394.66
2023-09-19T07:05:01.878Z,100395.97
2023-09-19T07:07:33.854Z,100401.19
2023-09-19T07:10:05.597Z,100395.03
2023-09-19T07:12:37.469Z,100404.00
2023-09-19T07:15:09.292Z,100405.47
2023-09-19T07:17:40.828Z,100399.91
2023-09-19T07:20:12.528Z,100398.25
2023-09-19T07:22:44.182Z,100408.25
2023-09-19T07:25:15.925Z,100412.44
2023-09-19T07:27:47.520Z,100410.72
2023-09-19T07:30:19.124Z,100402.28
2023-09-19T07:32:50.678Z,100411.56
2023-09-19T07:35:22.220Z,100411.00
2023-09-19T07:37:54.368Z,100411.97
2023-09-19T07:40:26.307Z,100425.22
2023-09-19T07:42:58.103Z,100418.38
2023-09-19T07:45:29.610Z,100395.91
2023-09-19T07:48:01.455Z,100423.81
2023-09-19T07:50:33.034Z,100427.78
2023-09-19T07:53:04.838Z,100422.44
2023-09-19T07:55:36.426Z,100423.06
2023-09-19T07:58:08.241Z,100433.41
2023-09-19T08:00:39.770Z,100443.34
2023-09-19T08:03:16.566Z,100445.31
2023-09-19T08:05:48.655Z,100447.72
2023-09-19T08:08:20.498Z,100457.69
2023-09-19T08:10:52.366Z,100450.47
2023-09-19T08:13:23.956Z,100453.88
2023-09-19T08:15:55.979Z,100443.16
2023-09-19T08:18:27.574Z,100446.09
2023-09-19T08:20:59.234Z,100443.09
2023-09-19T08:23:30.756Z,100449.16
2023-09-19T08:26:02.337Z,100446.78
2023-09-19T08:28:34.139Z,100448.78
2023-09-19T08:31:06.129Z,100450.56
2023-09-19T08:33:37.976Z,100456.63
2023-09-19T08:36:10.139Z,100465.38
2023-09-19T08:38:42.040Z,100453.44
2023-09-19T08:41:13.863Z,100463.81
2023-09-19T08:43:45.432Z,100456.41
2023-09-19T08:46:17.137Z,100464.94
2023-09-19T08:48:48.715Z,100464.97
2023-09-19T08:51:23.020Z,100467.91
2023-09-19T08:53:54.910Z,100476.97
2023-09-19T08:56:26.407Z,100470.69
2023-09-19T08:58:58.361Z,100480.28
2023-09-19T09:01:30.184Z,100472.22
2023-09-19T09:04:01.857Z,100491.47
2023-09-19T09:06:33.668Z,100483.47
2023-09-19T09:09:05.466Z,100475.75
2023-09-19T09:11:37.131Z,100476.13
2023-09-19T09:14:08.693Z,100480.25
2023-09-19T09:16:40.391Z,100492.06
2023-09-19T09:19:11.998Z,100491.34
2023-09-19T09:21:43.510Z,100493.06
2023-09-19T09:24:15.084Z,100485.16
2023-09-19T09:26:46.619Z,100494.00
2023-09-19T09:29:21.414Z,100489.28
2023-09-19T09:31:53.502Z,100487.88
2023-09-19T09:34:25.435Z,100497.91
2023-09-19T09:36:56.963Z,100494.94
2023-09-19T09:39:28.922Z,100491.63
2023-09-19T09:42:00.476Z,100487.13
2023-09-19T09:44:32.389Z,100444.81
2023-09-19T09:47:04.022Z,100482.00
2023-09-19T09:49:35.914Z,100488.81
2023-09-19T09:52:10.785Z,100479.00
2023-09-19T09:54:43.952Z,100486.75
2023-09-19T09:57:15.748Z,100490.69
2023-09-19T09:59:47.558Z,100499.97
2023-09-19T10:02:19.189Z,100497.97
2023-09-19T10:04:50.948Z,100504.19
2023-09-19T10:07:22.899Z,100491.13
2023-09-19T10:09:54.415Z,100489.69
2023-09-19T10:12:25.929Z,100497.88
2023-09-19T10:14:57.418Z,100508.09
2023-09-19T10:17:29.529Z,100489.78
2023-09-19T10:20:01.161Z,100499.63
2023-09-19T10:22:33.025Z,100499.78
2023-09-19T10:25:04.552Z,100489.44
2023-09-19T10:27:36.077Z,100493.34
2023-09-19T10:30:07.578Z,100504.31
2023-09-19T10:32:39.373Z,100493.19
2023-09-19T10:35:11.019Z,100487.25
2023-09-19T10:37:42.942Z,100495.38
2023-09-19T10:40:14.751Z,100495.91
2023-09-19T10:42:46.260Z,100482.59
2023-09-19T10:45:18.180Z,100493.03
2023-09-19T10:47:49.775Z,100488.28
2023-09-19T10:50:21.798Z,100479.69
2023-09-19T10:52:53.458Z,100483.94
2023-09-19T10:55:25.006Z,100492.09
2023-09-19T10:57:56.546Z,100490.19
2023-09-19T11:00:28.053Z,100486.69
2023-09-19T11:02:59.674Z,100493.34
2023-09-19T11:05:31.662Z,100496.66
2023-09-19T11:08:03.214Z,100506.38
2023-09-19T11:10:34.810Z,100508.53
2023-09-19T11:13:06.683Z,100501.66
2023-09-19T11:15:38.229Z,100499.59
2023-09-19T11:18:10.123Z,100505.06
2023-09-19T11:20:41.673Z,100509.03
2023-09-19T11:23:13.564Z,100501.97
2023-09-19T11:25:45.179Z,100496.91
2023-09-19T11:28:16.998Z,100501.72
2023-09-19T11:30:48.490Z,100495.13
2023-09-19T11:33:20.177Z,100494.34
2023-09-19T11:35:51.730Z,100493.00
2023-09-19T11:38:23.597Z,100487.06
2023-09-19T11:40:55.297Z,100504.69
2023-09-19T11:43:27.288Z,100498.72
2023-09-19T11:45:59.234Z,100508.72
2023-09-19T11:48:30.882Z,100506.97
2023-09-19T11:53:34.269Z,100504.59
2023-09-19T11:56:05.794Z,100508.44
2023-09-19T11:58:37.377Z,100513.84
2023-09-19T12:01:09.466Z,100513.38
2023-09-19T12:03:41.021Z,100506.63
2023-09-19T12:06:12.525Z,100500.41
2023-09-19T12:08:44.162Z,100517.69
2023-09-19T12:11:15.699Z,100506.66
2023-09-19T12:13:47.264Z,100510.50
2023-09-19T12:16:18.831Z,100457.88
2023-09-19T12:18:50.446Z,100518.91
2023-09-19T12:21:21.941Z,100513.59
2023-09-19T12:23:53.869Z,100508.75
2023-09-19T12:26:25.405Z,100513.06
2023-09-19T12:28:57.304Z,100501.38
2023-09-19T12:31:28.879Z,100511.53
2023-09-19T12:34:00.761Z,100510.31
2023-09-19T12:36:32.372Z,100509.63
2023-09-19T12:39:04.383Z,100510.44
2023-09-19T12:41:35.891Z,100506.66
2023-09-19T12:44:07.466Z,100509.91
2023-09-19T12:46:39.085Z,100498.03
2023-09-19T12:49:10.631Z,100497.09
2023-09-19T12:51:42.490Z,100495.06
2023-09-19T12:54:13.987Z,100504.19
2023-09-19T12:56:45.484Z,100502.38
2023-09-19T12:59:17.083Z,100495.88
2023-09-19T13:01:48.743Z,100502.25
2023-09-19T13:04:20.560Z,100505.63
2023-09-19T13:06:52.611Z,100500.34
2023-09-19T13:09:24.737Z,100511.28
2023-09-19T13:11:56.526Z,100500.44
2023-09-19T13:14:28.078Z,100519.66
2023-09-19T13:16:59.771Z,100511.31
2023-09-19T13:19:31.347Z,100507.06
2023-09-19T13:22:02.856Z,100503.91
2023-09-19T13:24:34.663Z,100508.47
2023-09-19T13:27:06.200Z,100506.28
2023-09-19T13:29:38.037Z,100501.75
2023-09-19T13:32:09.717Z,100495.34
2023-09-19T13:34:41.323Z,100499.03
2023-09-19T13:37:12.893Z,100506.81
2023-09-19T13:39:44.414Z,100492.38
2023-09-19T13:42:15.924Z,100503.53
2023-09-19T13:44:47.463Z,100501.38
2023-09-19T13:47:19.022Z,100503.94
2023-09-19T13:49:50.626Z,100498.09
2023-09-19T13:52:22.347Z,100492.56
2023-09-19T13:54:53.842Z,100501.72
2023-09-19T13:57:25.860Z,100492.09
2023-09-19T13:59:57.363Z,100490.66
2023-09-19T14:02:29.109Z,100497.50
2023-09-19T14:05:00.733Z,100489.19
2023-09-19T14:07:32.652Z,100485.38
2023-09-19T14:10:04.188Z,100485.16
2023-09-19T14:12:35.988Z,100480.94
2023-09-19T14:15:07.484Z,100487.06
2023-09-19T14:17:39.534Z,100483.03
2023-09-19T14:20:11.660Z,100478.97
2023-09-19T14:22:43.465Z,100481.06
2023-09-19T14:25:15.032Z,100473.88
2023-09-19T14:27:46.537Z,100481.81
2023-09-19T14:30:18.075Z,100467.13
2023-09-19T14:32:49.643Z,100486.31
2023-09-19T14:35:21.652Z,100477.03
2023-09-19T14:37:53.223Z,100486.72
2023-09-19T14:40:25.266Z,100484.03
2023-09-19T14:42:56.776Z,100483.00
2023-09-19T14:45:28.773Z,100477.00
2023-09-19T14:48:00.407Z,100484.69
2023-09-19T14:50:32.363Z,100481.25
2023-09-19T14:53:03.935Z,100487.47
2023-09-19T14:55:35.487Z,100476.06
2023-09-19T14:58:07.411Z,100475.84
2023-09-19T15:00:38.989Z,100477.53
2023-09-19T15:03:10.951Z,100475.50
2023-09-19T15:05:42.706Z,100467.34
2023-09-19T15:08:14.637Z,100467.38
2023-09-19T15:10:46.159Z,100473.44
2023-09-19T15:13:17.763Z,100464.16
2023-09-19T15:15:49.333Z,100475.41
2023-09-19T15:18:20.996Z,100472.50
2023-09-19T15:20:52.978Z,100469.72
2023-09-19T15:23:32.629Z,100468.91
2023-09-19T15:26:04.502Z,100469.28
2023-09-19T15:28:36.055Z,100472.56
2023-09-19T15:31:07.690Z,100466.28
2023-09-19T15:33:39.210Z,100467.09
2023-09-19T15:36:11.183Z,100460.16
2023-09-19T15:38:42.687Z,100459.41
2023-09-19T15:41:14.372Z,100465.03
2023-09-19T15:43:45.935Z,100464.16
2023-09-19T15:46:17.852Z,100456.66
2023-09-19T15:48:49.423Z,100458.63
2023-09-19T15:51:21.417Z,100461.38
2023-09-19T15:53:53.218Z,100454.56
2023-09-19T15:56:24.713Z,100465.78
2023-09-19T15:58:56.546Z,100470.88
2023-09-19T16:01:28.313Z,100465.25
2023-09-19T16:04:00.191Z,100468.84
2023-09-19T16:06:31.759Z,100475.56
2023-09-19T16:09:03.602Z,100479.03
2023-09-19T16:11:35.091Z,100476.13
2023-09-19T16:14:07.048Z,100487.78
2023-09-19T16:16:38.754Z,100482.06
2023-09-19T16:19:10.340Z,100486.63
2023-09-19T16:21:42.103Z,100481.28
2023-09-19T16:24:14.021Z,100489.03
2023-09-19T16:26:45.526Z,100494.72
2023-09-19T16:29:17.268Z,100487.34
2023-09-19T16:31:48.855Z,100485.69
2023-09-19T16:34:20.401Z,100485.94
2023-09-19T16:36:51.925Z,100488.41
2023-09-19T16:39:23.635Z,100483.31
2023-09-19T16:41:55.436Z,100488.50
2023-09-19T16:44:27.185Z,100486.28
2023-09-19T16:46:59.027Z,100480.88
2023-09-19T16:49:30.560Z,100480.69
2023-09-19T16:52:02.429Z,100482.78
2023-09-19T16:54:33.930Z,100471.84
2023-09-19T16:57:05.732Z,100488.44
2023-09-19T16:59:37.258Z,100484.91
2023-09-19T17:02:09.193Z,100490.72
2023-09-19T17:04:40.788Z,100484.94
2023-09-19T17:07:12.641Z,100489.69
2023-09-19T17:09:44.144Z,100490.50
2023-09-19T17:12:15.923Z,100483.91
2023-09-19T17:14:47.419Z,100488.88
2023-09-19T17:17:18.938Z,100480.78
2023-09-19T17:19:50.509Z,100471.06
2023-09-19T17:22:22.126Z,100482.63
2023-09-19T17:24:53.712Z,100483.84
2023-09-19T17:27:25.213Z,100484.84
2023-09-19T17:32:38.333Z,100495.13
2023-09-19T17:35:10.111Z,100497.16
2023-09-19T17:37:41.741Z,100497.22
2023-09-19T17:40:13.592Z,100510.41
2023-09-19T17:42:45.174Z,100517.75
2023-09-19T17:45:16.754Z,100520.59
2023-09-19T17:47:48.345Z,100513.06
2023-09-19T17:50:19.919Z,100524.38
2023-09-19T17:52:51.524Z,100529.88
2023-09-19T17:55:23.039Z,100530.63
2023-09-19T17:57:56.793Z,100529.81
2023-09-19T18:00:29.483Z,100530.38
2023-09-19T18:03:01.523Z,100532.06
2023-09-19T18:05:33.204Z,100539.25
2023-09-19T18:08:05.138Z,100538.63
2023-09-19T18:10:36.811Z,100536.78
2023-09-19T18:13:08.333Z,100531.84
2023-09-19T18:15:39.858Z,100536.97
2023-09-19T18:18:11.480Z,100546.56
2023-09-19T18:20:43.382Z,100537.94
2023-09-19T18:23:14.953Z,100537.28
2023-09-19T18:25:46.501Z,100545.31
2023-09-19T18:28:18.025Z,100549.03
2023-09-19T18:30:49.571Z,100550.91
2023-09-19T18:33:21.082Z,100554.59
2023-09-19T18:35:52.600Z,100566.31
2023-09-19T18:38:24.150Z,100571.06
2023-09-19T18:40:58.186Z,100572.31
2023-09-19T18:43:31.177Z,100572.94
2023-09-19T18:46:02.777Z,100562.63
2023-09-19T18:48:34.640Z,100559.31
2023-09-19T18:51:06.177Z,100572.09
2023-09-19T18:53:38.135Z,100565.16
2023-09-19T18:56:09.682Z,100564.56
2023-09-19T18:58:41.566Z,100564.63
2023-09-19T19:01:13.295Z,100575.47
2023-09-19T19:03:44.915Z,100567.81
2023-09-19T19:06:16.476Z,100568.91
2023-09-19T19:08:48.009Z,100577.56
2023-09-19T19:11:19.572Z,100568.94
2023-09-19T19:13:51.141Z,100574.09
2023-09-19T19:16:22.670Z,100574.31
2023-09-19T19:18:54.590Z,100579.81
2023-09-19T19:21:26.521Z,100581.06
2023-09-19T19:23:58.061Z,100575.31
2023-09-19T19:26:29.949Z,100584.19
2023-09-19T19:29:01.457Z,100586.44
2023-09-19T19:31:33.350Z,100585.16
2023-09-19T19:34:06.413Z,100584.38
2023-09-19T19:36:39.643Z,100585.03
2023-09-19T19:39:11.173Z,100576.16
2023-09-19T19:41:43.070Z,100580.06
2023-09-19T19:44:14.702Z,100583.38
2023-09-19T19:46:46.316Z,100583.97
2023-09-19T19:49:17.847Z,100581.94
2023-09-19T19:51:49.356Z,100576.56
2023-09-19T19:54:20.880Z,100578.22
2023-09-19T19:56:52.611Z,100576.38
2023-09-19T19:59:24.230Z,100571.22
2023-09-19T20:01:55.837Z,100577.59
2023-09-19T20:04:27.380Z,100589.13
2023-09-19T20:06:58.911Z,100589.13
2023-09-19T20:09:30.417Z,100591.59
2023-09-19T20:12:02.297Z,100584.59
2023-09-19T20:14:33.814Z,100578.16
2023-09-19T20:17:06.106Z,100584.34
2023-09-19T20:19:37.867Z,100592.56
2023-09-19T20:22:09.378Z,100584.28
2023-09-19T20:24:40.941Z,100579.94
2023-09-19T20:27:12.454Z,100582.38
2023-09-19T20:29:44.200Z,100574.53
2023-09-19T20:32:15.874Z,100577.66
2023-09-19T20:34:47.483Z,100582.16
2023-09-19T20:37:19.054Z,100573.88
2023-09-19T20:39:50.574Z,100574.66
2023-09-19T20:42:22.101Z,100569.47
2023-09-19T20:44:53.932Z,100532.31
2023-09-19T20:47:26.149Z,100574.59
2023-09-19T20:49:57.907Z,100576.63
2023-09-19T20:52:29.476Z,100572.44
2023-09-19T20:55:00.984Z,100576.13
2023-09-19T20:57:32.861Z,100578.06
2023-09-19T21:00:04.366Z,100564.06
2023-09-19T21:02:36.311Z,100563.03
2023-09-19T21:05:07.904Z,100558.50
2023-09-19T21:07:39.796Z,100568.56
2023-09-19T21:10:12.323Z,100563.41
2023-09-19T21:12:44.246Z,100566.28
2023-09-19T21:15:16.229Z,100568.50
2023-09-19T21:17:47.829Z,100572.31
2023-09-19T21:20:19.732Z,100571.91
2023-09-19T21:22:51.362Z,100574.31
2023-09-19T21:25:23.233Z,100580.22
2023-09-19T21:27:54.746Z,100571.75
2023-09-19T21:30:26.607Z,100577.00
2023-09-19T21:32:58.119Z,100572.88
2023-09-19T21:35:30.010Z,100567.81
2023-09-19T21:38:01.575Z,100564.19
2023-09-19T21:40:33.433Z,100569.47
2023-09-19T21:43:05.157Z,100567.25
2023-09-19T21:45:36.688Z,100567.13
2023-09-19T21:48:08.582Z,100564.09
2023-09-19T21:50:40.126Z,100563.06
2023-09-19T21:53:11.977Z,100553.84
2023-09-19T21:55:43.543Z,100554.66
2023-09-19T21:58:15.402Z,100555.03
2023-09-19T22:00:46.959Z,100555.03
2023-09-19T22:03:18.966Z,100545.16
2023-09-19T22:05:50.537Z,100547.38
2023-09-19T22:08:22.436Z,100548.88
2023-09-19T22:10:54.373Z,100549.16
2023-09-19T22:13:26.255Z,100552.41
2023-09-19T22:15:58.094Z,100548.16
2023-09-19T22:18:29.619Z,100547.09
2023-09-19T22:21:01.477Z,100549.69
2023-09-19T22:23:32.976Z,100547.09
2023-09-19T22:26:04.585Z,100541.47
2023-09-19T22:28:36.205Z,100546.56
2023-09-19T22:31:08.209Z,100543.59
2023-09-19T22:33:39.752Z,100542.53
2023-09-19T22:36:11.690Z,100547.22
2023-09-19T22:38:43.529Z,100545.53
2023-09-19T22:41:15.567Z,100490.78
2023-09-19T22:43:47.121Z,100542.13
2023-09-19T22:46:18.735Z,100540.28
2023-09-19T22:48:50.290Z,100547.81
2023-09-19T22:51:21.785Z,100544.16
2023-09-19T22:53:53.629Z,100541.47
2023-09-19T22:56:25.159Z,100539.63
2023-09-19T22:58:57.104Z,100542.13
2023-09-19T23:01:28.800Z,100547.47
2023-09-19T23:04:00.832Z,100543.88
2023-09-19T23:06:32.782Z,100546.00
2023-09-19T23:09:04.635Z,100544.78
2023-09-19T23:11:36.417Z,100539.63
2023-09-19T23:14:08.039Z,100542.13
2023-09-19T23:16:39.905Z,100553.09
2023-09-19T23:19:11.471Z,100548.84
2023-09-19T23:21:43.423Z,100537.13
2023-09-19T23:24:14.933Z,100540.00
2023-09-19T23:26:46.460Z,100541.09
2023-09-19T23:29:17.996Z,100546.69
2023-09-19T23:31:49.613Z,100546.50
2023-09-19T23:34:21.261Z,100554.41
2023-09-19T23:36:52.850Z,100540.13
2023-09-19T23:39:24.750Z,100551.53
2023-09-19T23:41:56.271Z,100546.34
2023-09-19T23:44:28.012Z,100544.41
2023-09-19T23:46:59.555Z,100540.16
2023-09-19T23:49:31.468Z,100537.84
2023-09-19T23:52:02.973Z,100552.22
2023-09-19T23:54:34.801Z,100543.25
2023-09-19T23:57:06.313Z,100544.63
2023-09-19T23:59:38.035Z,100546.50
